Time;durP1;ratioP1;P1;durP2;ratioP2;P2;SDS_P1;SDS_P2;PMS_P1;PMS_P2;Temp;Humidity;BMP_temperature;BMP_pressure;BME280_temperature;BME280_humidity;BME280_pressure;Samples;Min_cycle;Max_cycle;Signal;HPM_P1;HPM_P2
2022/05/07 00:01:05;;;;;;;2.67;2.00;;;10.80;99.90;;;;;;5037930;28;20439;-85
2022/05/07 00:03:31;;;;;;;1.70;1.60;;;10.80;99.90;;;;;;5041344;28;20131;-83
2022/05/07 00:05:57;;;;;;;4.85;2.10;;;10.70;99.90;;;;;;5073651;28;20406;-83
2022/05/07 00:08:23;;;;;;;2.80;2.38;;;10.60;99.90;;;;;;5055939;28;20083;-84
2022/05/07 00:10:49;;;;;;;2.25;2.00;;;10.60;99.90;;;;;;5054348;28;20392;-83
2022/05/07 00:13:15;;;;;;;2.72;1.95;;;10.50;99.90;;;;;;5021233;28;20110;-83
2022/05/07 00:18:01;;;;;;;2.30;2.10;;;10.50;99.90;;;;;;5071472;28;20036;-83
2022/05/07 00:18:27;;;;;;;3.95;2.40;;;10.40;99.90;;;;;;5084202;28;20032;-85
2022/05/07 00:20:53;;;;;;;3.42;2.60;;;10.30;99.90;;;;;;5074151;28;20398;-84
2022/05/07 00:23:18;;;;;;;2.53;2.22;;;10.30;99.90;;;;;;5057160;28;20032;-84
2022/05/07 00:25:44;;;;;;;3.08;2.80;;;10.20;99.90;;;;;;5073318;28;20138;-86
2022/05/07 00:28:10;;;;;;;3.45;2.60;;;10.20;99.90;;;;;;5040185;28;20028;-83
2022/05/07 00:30:35;;;;;;;2.50;2.30;;;10.20;99.90;;;;;;5040664;28;20127;-84
2022/05/07 00:33:04;;;;;;;2.30;2.10;;;10.10;99.90;;;;;;5041258;28;20028;-86
2022/05/07 00:35:30;;;;;;;2.60;2.30;;;10.10;99.90;;;;;;5073252;28;20063;-83
2022/05/07 00:37:55;;;;;;;2.42;2.05;;;10.10;99.90;;;;;;5070985;28;20098;-83
2022/05/07 00:40:21;;;;;;;2.95;2.38;;;10.00;99.90;;;;;;5047594;28;20032;-83
2022/05/07 00:42:47;;;;;;;4.00;2.08;;;10.00;99.90;;;;;;5073639;28;20566;-84
2022/05/07 00:45:13;;;;;;;6.40;2.20;;;10.00;99.90;;;;;;5053015;28;20035;-86
2022/05/07 00:47:39;;;;;;;3.13;2.53;;;9.90;99.90;;;;;;5052783;28;20445;-83
2022/05/07 00:52:50;;;;;;;2.45;2.25;;;9.90;99.90;;;;;;5056176;28;20033;-83
2022/05/07 00:55:16;;;;;;;2.28;2.08;;;9.80;99.90;;;;;;5058163;28;20041;-84
2022/05/07 00:57:42;;;;;;;2.58;2.08;;;9.80;99.90;;;;;;5057386;28;20029;-85
2022/05/07 01:00:09;;;;;;;5.05;2.42;;;9.80;99.90;;;;;;5065018;28;20067;-84
2022/05/07 01:02:41;;;;;;;2.78;2.58;;;9.70;99.90;;;;;;5072820;28;20444;-87
2022/05/07 01:05:08;;;;;;;2.67;2.28;;;9.70;99.90;;;;;;5057584;28;20033;-84
2022/05/07 01:07:34;;;;;;;2.65;2.30;;;9.70;99.90;;;;;;5072542;28;20036;-84
2022/05/07 01:10:05;;;;;;;3.38;2.72;;;9.60;99.90;;;;;;5040251;28;20032;-84
2022/05/07 01:12:35;;;;;;;2.80;2.60;;;9.50;99.90;;;;;;5073788;28;20033;-86
2022/05/07 01:15:02;;;;;;;4.20;2.95;;;9.50;99.90;;;;;;5065395;28;20033;-87
2022/05/07 01:17:35;;;;;;;2.45;2.25;;;9.50;99.90;;;;;;5072960;28;20315;-84
2022/05/07 01:20:09;;;;;;;2.92;2.63;;;9.50;99.90;;;;;;5042296;28;20028;-86
2022/05/07 01:22:35;;;;;;;2.60;2.40;;;9.40;99.90;;;;;;5056811;28;20029;-84
2022/05/07 01:25:02;;;;;;;5.25;2.72;;;9.40;99.90;;;;;;5037714;28;20039;-87
2022/05/07 01:27:28;;;;;;;3.17;2.88;;;9.40;99.90;;;;;;5052323;28;20028;-84
2022/05/07 01:29:54;;;;;;;2.35;2.10;;;9.40;99.90;;;;;;5019871;28;20119;-84
2022/05/07 01:32:19;;;;;;;3.45;2.42;;;9.40;99.90;;;;;;5048831;28;20032;-84
2022/05/07 01:34:45;;;;;;;3.47;2.53;;;9.40;99.90;;;;;;5056416;28;20032;-84
2022/05/07 01:37:11;;;;;;;2.78;2.40;;;9.30;99.90;;;;;;5072214;28;20100;-84
2022/05/07 01:39:37;;;;;;;3.35;3.05;;;9.40;99.90;;;;;;5049960;28;20029;-84
2022/05/07 01:42:04;;;;;;;3.50;2.88;;;9.30;99.90;;;;;;5053052;28;20033;-84
2022/05/07 01:44:30;;;;;;;4.82;2.95;;;9.30;99.90;;;;;;5052774;28;20051;-84
2022/05/07 01:49:39;;;;;;;3.75;2.92;;;9.30;99.90;;;;;;5043396;28;20511;-84
2022/05/07 01:52:07;;;;;;;3.55;2.83;;;9.20;99.90;;;;;;5073272;28;20024;-84
2022/05/07 01:54:35;;;;;;;3.55;2.92;;;9.20;99.90;;;;;;5060959;28;20039;-87
2022/05/07 01:57:01;;;;;;;2.80;2.60;;;9.20;99.90;;;;;;5043455;28;20037;-84
2022/05/07 01:59:27;;;;;;;3.40;3.10;;;9.20;99.90;;;;;;5056601;28;20029;-87
2022/05/07 02:01:56;;;;;;;3.40;3.10;;;9.10;99.90;;;;;;5057310;28;20033;-85
2022/05/07 02:04:22;;;;;;;3.20;2.90;;;9.10;99.90;;;;;;5056630;28;20070;-84
2022/05/07 02:06:48;;;;;;;3.15;2.85;;;9.10;99.90;;;;;;5035320;28;20033;-83
2022/05/07 02:09:15;;;;;;;5.47;3.10;;;9.00;99.90;;;;;;5056339;28;20028;-84
2022/05/07 02:11:41;;;;;;;3.83;3.35;;;8.90;99.90;;;;;;5023890;28;20032;-84
2022/05/07 02:14:08;;;;;;;3.58;3.10;;;8.90;99.90;;;;;;5024437;28;20040;-85
2022/05/07 02:16:34;;;;;;;5.03;3.20;;;8.80;99.90;;;;;;5059606;28;20032;-84
2022/05/07 02:19:00;;;;;;;5.07;3.28;;;8.80;99.90;;;;;;5076309;28;20445;-86
2022/05/07 02:21:25;;;;;;;4.32;3.10;;;8.80;99.90;;;;;;5060147;28;20090;-83
2022/05/07 02:23:51;;;;;;;6.50;3.40;;;8.70;99.90;;;;;;5093526;28;20390;-84
2022/05/07 02:26:17;;;;;;;3.90;3.60;;;8.60;99.90;;;;;;5059435;28;20035;-84
2022/05/07 02:28:43;;;;;;;3.88;3.47;;;8.60;99.90;;;;;;5051444;28;20402;-84
2022/05/07 02:31:10;;;;;;;4.88;3.58;;;8.60;99.90;;;;;;5039944;28;20492;-87
2022/05/07 02:33:36;;;;;;;3.95;3.40;;;8.60;99.90;;;;;;5059991;28;20035;-84
2022/05/07 02:36:04;;;;;;;4.20;3.80;;;8.60;99.90;;;;;;5059735;28;20123;-84
2022/05/07 02:38:29;;;;;;;4.57;3.30;;;8.60;99.90;;;;;;5075930;28;20463;-84
2022/05/07 02:43:41;;;;;;;4.85;3.38;;;8.50;99.90;;;;;;5065103;28;20025;-85
2022/05/07 02:46:12;;;;;;;4.68;3.28;;;8.40;99.90;;;;;;5044736;28;20024;-84
2022/05/07 02:48:44;;;;;;;4.78;3.80;;;8.40;99.90;;;;;;5059603;28;20032;-84
2022/05/07 02:51:12;;;;;;;5.07;3.60;;;8.40;99.90;;;;;;5060102;28;20028;-86
2022/05/07 02:53:38;;;;;;;4.07;3.67;;;8.40;99.90;;;;;;5075905;28;20115;-84
2022/05/07 02:56:05;;;;;;;3.80;3.38;;;8.40;99.90;;;;;;5075558;28;20096;-84
2022/05/07 02:58:31;;;;;;;3.80;3.50;;;8.40;99.90;;;;;;5075405;28;20195;-85
2022/05/07 03:00:57;;;;;;;4.72;3.30;;;8.40;99.90;;;;;;5042518;28;20064;-84
2022/05/07 03:03:23;;;;;;;4.38;3.50;;;8.40;99.90;;;;;;5075796;28;20494;-84
2022/05/07 03:05:49;;;;;;;3.50;3.20;;;8.30;99.90;;;;;;5092189;28;20585;-84
2022/05/07 03:08:15;;;;;;;4.57;3.20;;;8.30;99.90;;;;;;5038600;28;20029;-83
2022/05/07 03:10:40;;;;;;;4.93;3.60;;;8.30;99.90;;;;;;5055887;28;20036;-84
2022/05/07 03:13:08;;;;;;;3.13;2.83;;;8.30;99.90;;;;;;5039800;28;20064;-87
2022/05/07 03:15:33;;;;;;;2.58;2.38;;;8.20;99.90;;;;;;5055100;28;20086;-83
2022/05/07 03:18:06;;;;;;;3.35;2.92;;;8.20;99.90;;;;;;5044648;28;20024;-84
2022/05/07 03:20:32;;;;;;;7.57;4.13;;;8.20;99.90;;;;;;5041946;28;20035;-84
2022/05/07 03:22:58;;;;;;;3.45;3.15;;;8.10;99.90;;;;;;5042072;28;20248;-84
2022/05/07 03:25:24;;;;;;;3.78;3.30;;;8.10;99.90;;;;;;5058319;28;20039;-87
2022/05/07 03:27:50;;;;;;;7.13;3.42;;;8.00;99.90;;;;;;5075303;28;20032;-85
2022/05/07 03:30:17;;;;;;;3.60;3.30;;;8.00;99.90;;;;;;5042664;28;20055;-84
2022/05/07 03:32:54;;;;;;;4.45;3.28;;;8.00;99.90;;;;;;5076447;28;20032;-83
2022/05/07 03:35:20;;;;;;;4.68;3.45;;;7.90;99.90;;;;;;5022541;28;20040;-84
2022/05/07 03:37:46;;;;;;;4.55;3.53;;;7.80;99.90;;;;;;5044050;28;20042;-84
2022/05/07 03:40:12;;;;;;;3.88;3.47;;;7.70;99.90;;;;;;5022410;28;20040;-84
2022/05/07 03:42:39;;;;;;;6.80;4.30;;;7.70;99.90;;;;;;5073450;28;20032;-86
2022/05/07 03:45:05;;;;;;;4.20;3.75;;;7.70;99.90;;;;;;5042025;28;20028;-87
2022/05/07 03:47:34;;;;;;;4.38;3.95;;;7.60;99.90;;;;;;5074661;28;20028;-84
2022/05/07 03:50:03;;;;;;;5.28;3.65;;;7.60;99.90;;;;;;5033337;28;20035;-85
2022/05/07 03:55:16;;;;;;;4.65;3.95;;;7.60;99.90;;;;;;5060388;28;20039;-85
2022/05/07 03:57:42;;;;;;;5.95;3.78;;;7.60;99.90;;;;;;5091406;28;20105;-84
2022/05/07 04:00:09;;;;;;;4.20;3.80;;;7.60;99.90;;;;;;5041891;28;20163;-85
2022/05/07 04:02:41;;;;;;;5.47;4.38;;;7.60;99.90;;;;;;5073690;28;20272;-85
2022/05/07 04:05:17;;;;;;;6.00;4.18;;;7.70;99.90;;;;;;5069038;28;20027;-84
2022/05/07 04:07:43;;;;;;;6.03;4.13;;;7.70;99.90;;;;;;5052842;28;20510;-83
2022/05/07 04:10:11;;;;;;;4.47;3.75;;;7.70;99.90;;;;;;5052578;28;20024;-84
2022/05/07 04:12:47;;;;;;;6.38;4.18;;;7.70;99.90;;;;;;5038911;28;20054;-83
2022/05/07 04:15:13;;;;;;;3.67;3.38;;;7.70;99.90;;;;;;5064698;28;20186;-83
2022/05/07 04:17:39;;;;;;;4.93;4.40;;;7.70;99.90;;;;;;5070131;28;20733;-83
2022/05/07 04:20:06;;;;;;;5.85;3.90;;;7.70;99.90;;;;;;5019442;28;20029;-83
2022/05/07 04:22:35;;;;;;;6.25;4.25;;;7.70;99.90;;;;;;5052712;28;20380;-83
2022/05/07 04:25:09;;;;;;;4.60;3.85;;;7.70;99.90;;;;;;5052512;28;20025;-83
2022/05/07 04:27:40;;;;;;;4.30;3.90;;;7.70;99.90;;;;;;5020557;28;20029;-83
2022/05/07 04:30:07;;;;;;;5.47;4.78;;;7.70;99.90;;;;;;5052316;28;20062;-83
2022/05/07 04:32:34;;;;;;;7.07;4.47;;;7.70;99.90;;;;;;5052185;28;20033;-84
2022/05/07 04:35:01;;;;;;;4.75;4.15;;;7.70;99.90;;;;;;5054681;28;20032;-84
2022/05/07 04:37:30;;;;;;;4.47;4.00;;;7.80;99.90;;;;;;5067505;28;20043;-83
2022/05/07 04:39:59;;;;;;;5.38;4.53;;;7.80;99.90;;;;;;5072334;28;20046;-84
2022/05/07 04:42:26;;;;;;;4.78;4.28;;;7.90;99.90;;;;;;5072102;28;20503;-84
2022/05/07 04:44:57;;;;;;;4.10;3.70;;;7.90;99.90;;;;;;5041546;28;20063;-84
2022/05/07 04:47:40;;;;;;;5.05;3.55;;;8.00;99.90;;;;;;5067082;28;20025;-83
2022/05/07 04:50:12;;;;;;;3.47;3.17;;;8.10;99.90;;;;;;5059534;28;20043;-84
2022/05/07 04:52:43;;;;;;;3.80;3.50;;;8.20;99.90;;;;;;5057530;28;20024;-83
2022/05/07 04:55:09;;;;;;;4.30;3.88;;;8.30;99.90;;;;;;5088563;28;20043;-83
2022/05/07 04:57:36;;;;;;;5.82;4.50;;;8.30;99.90;;;;;;5087333;28;20028;-84
2022/05/07 05:00:08;;;;;;;5.85;4.82;;;8.40;99.90;;;;;;5056057;28;20039;-83
2022/05/07 05:03:00;;;;;;;5.32;4.13;;;8.50;99.90;;;;;;5073108;28;20029;-83
2022/05/07 05:05:27;;;;;;;3.75;3.25;;;8.60;99.90;;;;;;5018339;28;20070;-83
2022/05/07 05:08:06;;;;;;;3.30;3.00;;;8.70;99.90;;;;;;5072599;28;20060;-84
2022/05/07 05:10:32;;;;;;;3.85;3.38;;;8.80;99.90;;;;;;5038607;28;20694;-83
2022/05/07 05:12:58;;;;;;;3.58;3.05;;;9.00;99.90;;;;;;5035970;28;20032;-83
2022/05/07 05:15:23;;;;;;;2.83;2.55;;;9.00;99.90;;;;;;5066589;28;20063;-83
2022/05/07 05:18:06;;;;;;;3.00;2.80;;;9.10;99.90;;;;;;5067186;28;20056;-83
2022/05/07 05:20:34;;;;;;;3.72;3.15;;;9.20;99.90;;;;;;5040368;28;20089;-84
2022/05/07 05:23:12;;;;;;;3.30;3.00;;;9.20;99.90;;;;;;5056765;28;20737;-84
2022/05/07 05:25:45;;;;;;;2.83;2.63;;;9.30;99.90;;;;;;5068419;28;20078;-84
2022/05/07 05:28:19;;;;;;;4.50;3.20;;;9.40;99.90;;;;;;5067391;28;20035;-84
2022/05/07 05:30:51;;;;;;;4.80;3.33;;;9.40;99.90;;;;;;5035411;28;20029;-84
2022/05/07 05:33:22;;;;;;;3.53;3.15;;;9.50;99.90;;;;;;5056942;28;20051;-83
2022/05/07 05:36:02;;;;;;;4.85;3.42;;;9.60;99.90;;;;;;5072760;28;20036;-84
2022/05/07 05:38:30;;;;;;;4.60;3.85;;;9.70;99.90;;;;;;5038093;28;20168;-84
2022/05/07 05:40:56;;;;;;;6.65;4.75;;;9.70;99.90;;;;;;5071598;28;20047;-84
2022/05/07 05:43:22;;;;;;;4.32;3.92;;;9.80;99.90;;;;;;5019217;28;20027;-83
2022/05/07 05:45:48;;;;;;;3.72;3.20;;;9.90;99.90;;;;;;5054376;28;20028;-83
2022/05/07 05:48:15;;;;;;;4.72;3.88;;;10.00;99.90;;;;;;5034208;28;20040;-84
2022/05/07 05:50:45;;;;;;;6.07;4.68;;;10.10;99.90;;;;;;5053230;28;20600;-83
2022/05/07 05:53:12;;;;;;;4.38;3.95;;;10.40;99.90;;;;;;5069009;28;20028;-83
2022/05/07 05:55:41;;;;;;;4.60;4.05;;;11.00;99.90;;;;;;5019018;28;20067;-84
2022/05/07 05:58:06;;;;;;;4.40;3.95;;;11.40;99.90;;;;;;5050673;28;20052;-83
2022/05/07 06:00:34;;;;;;;4.45;4.05;;;11.80;99.90;;;;;;5051316;28;20090;-83
2022/05/07 06:02:59;;;;;;;5.10;4.03;;;12.40;99.90;;;;;;5067818;28;20032;-84
2022/05/07 06:05:28;;;;;;;3.72;3.40;;;12.80;99.90;;;;;;5054391;28;20056;-84
2022/05/07 06:07:55;;;;;;;6.75;3.83;;;13.30;99.90;;;;;;5037322;28;20029;-84
2022/05/07 06:10:29;;;;;;;4.65;3.00;;;13.80;99.90;;;;;;5059999;28;20658;-84
2022/05/07 06:12:57;;;;;;;3.80;3.10;;;14.30;99.90;;;;;;5087919;28;20028;-83
2022/05/07 06:15:27;;;;;;;3.60;2.67;;;14.90;99.90;;;;;;5055785;28;20028;-85
2022/05/07 06:17:55;;;;;;;3.42;3.13;;;15.40;99.90;;;;;;5073934;28;20163;-85
2022/05/07 06:20:21;;;;;;;3.38;2.28;;;16.00;99.90;;;;;;5076738;28;20036;-84
2022/05/07 06:22:50;;;;;;;3.08;2.45;;;16.50;99.90;;;;;;5036753;28;20033;-84
2022/05/07 06:28:06;;;;;;;3.08;2.13;;;17.40;95.30;;;;;;5072427;28;20119;-84
2022/05/07 06:30:38;;;;;;;3.70;2.42;;;17.90;93.60;;;;;;5055989;28;20032;-84
2022/05/07 06:33:07;;;;;;;4.35;2.20;;;18.20;92.70;;;;;;5071418;28;20051;-83
2022/05/07 06:35:42;;;;;;;2.55;2.35;;;18.70;90.50;;;;;;5053983;28;20024;-84
2022/05/07 06:38:12;;;;;;;3.97;2.38;;;19.10;88.90;;;;;;5066565;28;20036;-84
2022/05/07 06:40:41;;;;;;;3.45;2.80;;;19.50;85.20;;;;;;5074869;28;20555;-84
2022/05/07 06:43:07;;;;;;;3.08;2.50;;;19.80;82.00;;;;;;5046426;28;20115;-84
2022/05/07 06:46:05;;;;;;;3.67;2.22;;;20.10;80.00;;;;;;5086663;28;20047;-84
2022/05/07 06:48:37;;;;;;;3.47;2.50;;;20.40;77.90;;;;;;5069669;28;20486;-84
2022/05/07 06:51:09;;;;;;;2.53;2.33;;;20.70;76.20;;;;;;5085750;28;20175;-85
2022/05/07 06:53:34;;;;;;;2.50;2.30;;;21.00;73.00;;;;;;5070049;28;20123;-84
2022/05/07 06:56:01;;;;;;;4.18;2.20;;;21.10;71.50;;;;;;5066997;28;20066;-85
2022/05/07 06:58:30;;;;;;;5.10;2.22;;;21.40;71.30;;;;;;5068293;28;20025;-84
2022/05/07 07:00:57;;;;;;;3.60;2.58;;;21.50;69.20;;;;;;5089462;28;20121;-84
2022/05/07 07:03:24;;;;;;;2.90;2.40;;;21.70;68.20;;;;;;5074452;28;20035;-84
2022/05/07 07:05:50;;;;;;;2.95;2.08;;;21.80;67.70;;;;;;5073434;28;20039;-84
2022/05/07 07:08:16;;;;;;;2.53;1.95;;;21.90;67.20;;;;;;5057289;28;20081;-85
2022/05/07 07:10:42;;;;;;;2.17;1.98;;;22.00;67.20;;;;;;5072079;28;20051;-84
2022/05/07 07:13:08;;;;;;;2.80;2.20;;;22.20;65.50;;;;;;5090498;28;20515;-84
2022/05/07 07:15:36;;;;;;;2.47;2.08;;;22.40;62.00;;;;;;5073776;28;20051;-84
2022/05/07 07:18:04;;;;;;;2.28;1.83;;;22.50;63.30;;;;;;5069928;28;20028;-85
2022/05/07 07:20:30;;;;;;;3.10;2.22;;;22.60;63.30;;;;;;5021339;28;20568;-84
2022/05/07 07:22:56;;;;;;;2.15;2.00;;;22.80;63.80;;;;;;5053850;28;20127;-85
2022/05/07 07:25:22;;;;;;;3.83;1.90;;;23.00;64.00;;;;;;5053531;28;20063;-85
2022/05/07 07:27:47;;;;;;;2.45;2.25;;;23.20;61.00;;;;;;5070054;28;20033;-85
2022/05/07 07:30:13;;;;;;;3.70;2.17;;;23.50;60.30;;;;;;5040807;28;20410;-84
2022/05/07 07:32:39;;;;;;;2.03;1.80;;;23.40;58.40;;;;;;5073741;28;20051;-85
2022/05/07 07:35:05;;;;;;;1.58;1.48;;;23.30;60.70;;;;;;5073607;28;20032;-84
2022/05/07 07:37:34;;;;;;;1.75;1.65;;;23.40;60.20;;;;;;5055392;28;20044;-84
2022/05/07 07:40:01;;;;;;;2.35;1.67;;;23.40;58.40;;;;;;5089182;28;20555;-84
2022/05/07 07:42:27;;;;;;;4.47;1.92;;;23.40;58.50;;;;;;5038662;28;20028;-84
2022/05/07 07:50:23;;;;;;;2.45;1.60;;;23.70;57.10;;;;;;5040385;28;20032;-84
2022/05/07 07:52:53;;;;;;;2.13;1.92;;;23.70;56.60;;;;;;5069312;28;20036;-84
2022/05/07 07:55:19;;;;;;;1.98;1.77;;;23.80;56.20;;;;;;5077514;28;20071;-85
2022/05/07 07:57:45;;;;;;;1.77;1.67;;;23.80;55.70;;;;;;5069171;28;20028;-84
2022/05/07 08:00:12;;;;;;;3.42;1.80;;;23.70;56.20;;;;;;5048406;28;20032;-84
2022/05/07 08:02:47;;;;;;;7.07;2.10;;;23.60;56.80;;;;;;5089384;28;20045;-85
2022/05/07 08:05:13;;;;;;;3.90;1.80;;;23.40;57.50;;;;;;5083716;28;20028;-84
2022/05/07 08:13:07;;;;;;;2.83;1.85;;;22.90;56.90;;;;;;5049641;28;20036;-85
2022/05/07 08:15:33;;;;;;;3.08;2.10;;;22.30;59.40;;;;;;5067236;28;20031;-84
2022/05/07 08:17:59;;;;;;;3.65;2.50;;;22.10;58.70;;;;;;5053544;28;20028;-85
2022/05/07 08:20:25;;;;;;;2.78;2.50;;;21.80;58.60;;;;;;5029203;28;20522;-84
2022/05/07 08:22:50;;;;;;;3.58;2.60;;;21.50;58.50;;;;;;5052853;28;20036;-84
2022/05/07 08:25:16;;;;;;;4.60;2.53;;;21.30;58.20;;;;;;5052877;28;20036;-85
2022/05/07 08:27:41;;;;;;;2.58;2.38;;;21.00;61.60;;;;;;5024050;28;20028;-85
2022/05/07 08:30:08;;;;;;;4.53;2.88;;;20.80;62.70;;;;;;5037304;28;20525;-85
2022/05/07 08:32:33;;;;;;;2.22;2.03;;;20.50;61.70;;;;;;5036276;28;20089;-86
2022/05/07 08:34:59;;;;;;;2.58;2.38;;;20.30;63.40;;;;;;5067664;28;20036;-86
2022/05/07 08:37:25;;;;;;;2.65;2.40;;;20.10;65.70;;;;;;5052446;28;20035;-86
2022/05/07 08:39:50;;;;;;;3.47;3.15;;;20.00;64.10;;;;;;5029026;28;20560;-86
2022/05/07 08:42:16;;;;;;;2.67;2.40;;;19.90;67.20;;;;;;5063365;28;20556;-85
2022/05/07 08:44:42;;;;;;;8.68;2.78;;;19.90;70.30;;;;;;5063356;28;20513;-85
2022/05/07 08:47:07;;;;;;;4.80;2.97;;;19.90;67.80;;;;;;5033672;28;20031;-85
2022/05/07 08:49:34;;;;;;;2.80;2.50;;;19.80;64.80;;;;;;5086912;28;20887;-85
2022/05/07 08:52:02;;;;;;;3.33;2.50;;;19.70;68.20;;;;;;5070806;28;20543;-85
2022/05/07 08:54:30;;;;;;;2.75;2.30;;;19.70;60.50;;;;;;5053011;28;20052;-85
2022/05/07 08:56:56;;;;;;;2.50;2.30;;;19.80;60.90;;;;;;5016014;28;20587;-85
2022/05/07 08:59:23;;;;;;;3.45;2.70;;;19.90;59.90;;;;;;5033545;28;20089;-86
2022/05/07 09:01:49;;;;;;;2.40;2.20;;;19.80;59.00;;;;;;5048180;28;20440;-85
2022/05/07 09:04:15;;;;;;;4.72;2.45;;;19.90;62.80;;;;;;5049162;28;20903;-87
2022/05/07 09:06:41;;;;;;;2.40;1.73;;;19.90;62.60;;;;;;5034386;28;20039;-86
2022/05/07 09:09:07;;;;;;;3.53;1.98;;;20.00;65.70;;;;;;5051120;28;20032;-85
2022/05/07 09:11:42;;;;;;;3.53;2.00;;;20.00;63.10;;;;;;5049012;28;20441;-85
2022/05/07 09:14:09;;;;;;;2.13;1.97;;;20.10;62.30;;;;;;5050058;28;20094;-85
2022/05/07 09:16:42;;;;;;;2.22;1.80;;;20.10;63.10;;;;;;5047325;28;20399;-85
2022/05/07 09:19:24;;;;;;;2.25;2.08;;;20.00;64.50;;;;;;5065568;28;20036;-84
2022/05/07 09:21:50;;;;;;;3.75;2.10;;;19.90;60.10;;;;;;5048532;28;20025;-85
2022/05/07 09:24:17;;;;;;;2.17;1.80;;;19.60;60.50;;;;;;5074585;28;20054;-85
2022/05/07 09:26:44;;;;;;;3.78;2.10;;;19.50;59.50;;;;;;5051796;28;20027;-84
2022/05/07 09:29:14;;;;;;;3.22;2.08;;;19.30;60.10;;;;;;5048589;28;20110;-83
2022/05/07 09:31:42;;;;;;;3.92;2.40;;;19.10;58.90;;;;;;5078405;28;20093;-84
2022/05/07 09:37:00;;;;;;;2.95;2.08;;;18.60;63.60;;;;;;5066282;28;20036;-84
2022/05/07 09:39:34;;;;;;;2.17;1.90;;;18.60;62.40;;;;;;5064437;28;20043;-84
2022/05/07 09:42:01;;;;;;;3.58;2.15;;;18.70;64.00;;;;;;5081229;28;20071;-84
2022/05/07 09:44:28;;;;;;;3.28;1.73;;;18.80;59.90;;;;;;5034542;28;20098;-83
2022/05/07 09:46:59;;;;;;;3.80;2.28;;;18.90;62.50;;;;;;5067468;28;20123;-84
2022/05/07 09:49:28;;;;;;;3.58;1.98;;;19.10;59.30;;;;;;5083492;28;20528;-84
2022/05/07 09:51:55;;;;;;;3.05;2.58;;;19.20;59.40;;;;;;5029881;28;20044;-84
2022/05/07 10:00:07;;;;;;;4.03;1.95;;;19.40;62.20;;;;;;5054994;28;20752;-84
2022/05/07 10:02:59;;;;;;;5.03;2.22;;;19.60;62.80;;;;;;5054387;28;20047;-84
2022/05/07 10:05:43;;;;;;;2.20;2.00;;;19.70;57.00;;;;;;5063147;28;20115;-84
2022/05/07 10:08:24;;;;;;;2.42;2.22;;;19.70;57.40;;;;;;5083037;28;20035;-84
2022/05/07 10:10:53;;;;;;;3.00;1.88;;;19.70;59.00;;;;;;5082977;28;20028;-84
2022/05/07 10:13:19;;;;;;;2.55;1.40;;;19.80;59.50;;;;;;5058089;28;20390;-84
2022/05/07 10:15:46;;;;;;;2.15;1.58;;;19.90;60.10;;;;;;5057858;28;20456;-83
2022/05/07 10:18:16;;;;;;;3.78;1.75;;;20.00;56.70;;;;;;5085784;28;20036;-85
2022/05/07 10:20:44;;;;;;;3.83;1.92;;;20.00;57.30;;;;;;5074472;28;20114;-84
2022/05/07 10:23:12;;;;;;;3.30;1.55;;;19.90;57.90;;;;;;5071868;28;20028;-84
2022/05/07 10:25:39;;;;;;;1.90;1.73;;;19.80;58.40;;;;;;5070990;28;20040;-84
2022/05/07 10:28:13;;;;;;;1.73;1.30;;;19.70;58.30;;;;;;5054443;28;20167;-84
2022/05/07 10:30:53;;;;;;;5.40;1.75;;;19.60;59.20;;;;;;5053980;28;20040;-85
2022/05/07 10:33:19;;;;;;;1.63;1.52;;;19.60;59.10;;;;;;5093036;28;20044;-85
2022/05/07 10:35:53;;;;;;;4.07;2.30;;;19.50;59.50;;;;;;5076295;28;20040;-85
2022/05/07 10:38:37;;;;;;;3.50;1.95;;;19.40;59.30;;;;;;5038157;28;20040;-85
2022/05/07 10:41:07;;;;;;;4.13;1.80;;;19.40;57.10;;;;;;5050506;28;20036;-84
2022/05/07 10:43:36;;;;;;;3.20;1.98;;;19.40;57.60;;;;;;5081649;28;20074;-85
2022/05/07 10:46:03;;;;;;;2.05;1.85;;;19.30;59.10;;;;;;5054187;28;20032;-84
2022/05/07 10:48:40;;;;;;;3.47;1.55;;;19.20;60.80;;;;;;5083122;28;20092;-84
2022/05/07 10:51:16;;;;;;;1.40;1.30;;;19.10;60.30;;;;;;5076596;28;20039;-85
2022/05/07 10:53:42;;;;;;;2.95;1.50;;;19.20;60.00;;;;;;5078906;28;20028;-85
2022/05/07 10:56:19;;;;;;;1.95;1.60;;;19.20;59.60;;;;;;5076953;28;20542;-85
2022/05/07 10:58:46;;;;;;;1.95;1.70;;;19.20;60.40;;;;;;5091286;28;20028;-84
2022/05/07 11:01:13;;;;;;;1.33;1.23;;;19.20;59.80;;;;;;5073160;28;20025;-85
2022/05/07 11:03:39;;;;;;;1.63;1.30;;;19.20;62.50;;;;;;5076565;28;20052;-85
2022/05/07 11:06:05;;;;;;;1.45;1.35;;;19.30;63.20;;;;;;5077103;28;20090;-84
2022/05/07 11:08:30;;;;;;;1.83;1.73;;;19.50;61.20;;;;;;5061102;28;20032;-84
2022/05/07 11:11:04;;;;;;;1.92;1.67;;;19.50;58.40;;;;;;5069894;28;20616;-85
2022/05/07 11:13:29;;;;;;;1.77;1.63;;;19.60;59.50;;;;;;5082745;28;20051;-84
2022/05/07 11:16:06;;;;;;;3.15;1.80;;;19.50;59.10;;;;;;5053945;28;20531;-85
2022/05/07 11:18:34;;;;;;;1.98;1.40;;;19.40;59.30;;;;;;5075275;28;20032;-85
2022/05/07 11:21:02;;;;;;;2.70;1.77;;;19.40;58.60;;;;;;5051523;28;20047;-84
2022/05/07 11:23:28;;;;;;;1.65;1.38;;;19.40;59.50;;;;;;5087970;28;20034;-85
2022/05/07 11:25:54;;;;;;;2.22;1.65;;;19.40;60.30;;;;;;5072809;28;20706;-85
2022/05/07 11:28:19;;;;;;;3.90;1.40;;;19.40;60.40;;;;;;5055672;28;20090;-85
2022/05/07 11:30:52;;;;;;;1.40;1.30;;;19.40;61.00;;;;;;5088590;28;20032;-85
2022/05/07 11:33:25;;;;;;;2.47;1.42;;;19.50;60.50;;;;;;5074099;28;20081;-85
2022/05/07 11:36:08;;;;;;;1.50;1.40;;;19.60;59.30;;;;;;5089983;28;20078;-84
2022/05/07 11:38:35;;;;;;;2.22;1.70;;;19.80;59.10;;;;;;5076662;28;20538;-84
2022/05/07 11:41:12;;;;;;;1.70;1.60;;;19.80;57.10;;;;;;5085571;28;20037;-85
2022/05/07 11:46:23;;;;;;;1.88;1.70;;;19.70;59.90;;;;;;5069473;28;20109;-85
2022/05/07 11:48:48;;;;;;;1.40;1.25;;;19.90;59.70;;;;;;5079879;28;20089;-85
2022/05/07 11:51:24;;;;;;;1.77;1.60;;;20.10;59.40;;;;;;5073605;28;20036;-86
2022/05/07 11:53:49;;;;;;;1.42;1.20;;;20.50;57.20;;;;;;5091357;28;20524;-87
2022/05/07 11:56:15;;;;;;;1.50;1.40;;;20.80;56.80;;;;;;5056038;28;20040;-85
2022/05/07 11:58:48;;;;;;;2.10;1.02;;;21.20;58.60;;;;;;5069190;28;20032;-84
2022/05/07 12:01:26;;;;;;;1.90;1.20;;;21.60;59.00;;;;;;5086264;28;20051;-85
2022/05/07 12:03:53;;;;;;;5.10;1.38;;;22.10;56.50;;;;;;5090119;28;20020;-82
2022/05/07 12:06:32;;;;;;;2.30;1.40;;;22.40;54.60;;;;;;5072345;28;20028;-83
2022/05/07 12:08:58;;;;;;;3.35;1.75;;;22.60;53.30;;;;;;5089234;28;20024;-84
2022/05/07 12:11:24;;;;;;;1.90;1.40;;;22.60;50.70;;;;;;5073157;28;20054;-83
2022/05/07 12:13:50;;;;;;;2.00;1.33;;;22.50;52.10;;;;;;5073126;28;20518;-82
2022/05/07 12:19:00;;;;;;;1.30;1.20;;;22.00;51.90;;;;;;5077634;28;20067;-81
2022/05/07 12:29:52;;;;;;;1.70;1.15;;;21.60;53.20;;;;;;5056236;28;20047;-84
2022/05/07 12:32:19;;;;;;;3.97;1.33;;;21.80;55.00;;;;;;5063499;28;20514;-84
2022/05/07 12:34:45;;;;;;;2.58;1.10;;;22.10;53.20;;;;;;5075538;28;20072;-82
2022/05/07 12:37:11;;;;;;;1.98;1.38;;;22.40;53.80;;;;;;5035192;28;20070;-82
2022/05/07 12:39:37;;;;;;;2.80;1.20;;;22.90;50.40;;;;;;5074071;28;20078;-82
2022/05/07 12:42:07;;;;;;;1.35;1.25;;;23.10;50.00;;;;;;5036334;28;20093;-83
2022/05/07 12:44:32;;;;;;;1.20;1.10;;;23.20;48.60;;;;;;5076914;28;20486;-83
2022/05/07 12:46:59;;;;;;;2.08;1.38;;;22.90;51.30;;;;;;5072916;28;20066;-82
2022/05/07 12:49:25;;;;;;;1.40;1.30;;;22.90;51.90;;;;;;5055109;28;20059;-81
2022/05/07 12:51:51;;;;;;;1.20;1.10;;;22.90;51.20;;;;;;5089345;28;20070;-82
2022/05/07 12:54:17;;;;;;;2.28;1.30;;;23.00;50.70;;;;;;5069103;28;20455;-81
2022/05/07 12:56:44;;;;;;;2.15;1.30;;;23.00;48.30;;;;;;5063931;28;20052;-82
2022/05/07 12:59:10;;;;;;;2.67;1.10;;;22.80;50.70;;;;;;5080980;28;20036;-81
2022/05/07 13:01:35;;;;;;;2.33;1.60;;;22.60;50.90;;;;;;5050972;28;20067;-82
2022/05/07 13:04:01;;;;;;;1.33;1.23;;;22.40;48.90;;;;;;5067782;28;20043;-82
2022/05/07 13:06:27;;;;;;;2.20;1.05;;;22.10;48.60;;;;;;5034832;28;20064;-81
2022/05/07 13:08:53;;;;;;;1.35;1.25;;;21.80;49.10;;;;;;5061319;28;20043;-82
2022/05/07 13:11:19;;;;;;;2.72;1.30;;;21.50;50.30;;;;;;5055079;28;20097;-81
2022/05/07 13:13:46;;;;;;;1.20;1.00;;;21.40;50.90;;;;;;5087845;28;20071;-81
2022/05/07 13:16:13;;;;;;;4.65;1.30;;;21.50;52.60;;;;;;5036289;28;20067;-81
2022/05/07 13:18:39;;;;;;;2.95;1.40;;;21.90;52.20;;;;;;5087040;28;20466;-83
2022/05/07 13:21:06;;;;;;;1.95;1.27;;;22.30;49.50;;;;;;5052216;28;20040;-83
2022/05/07 13:23:32;;;;;;;1.10;1.00;;;22.50;48.20;;;;;;5052026;28;20056;-82
2022/05/07 13:25:57;;;;;;;2.20;1.38;;;22.70;48.40;;;;;;5054551;28;20670;-83
2022/05/07 13:28:23;;;;;;;0.98;0.88;;;22.90;47.20;;;;;;5058047;28;20558;-82
2022/05/07 13:30:49;;;;;;;1.50;0.80;;;23.00;49.70;;;;;;5045896;28;20514;-82
2022/05/07 13:33:14;;;;;;;1.70;0.95;;;23.40;50.20;;;;;;5057577;28;20032;-81
2022/05/07 13:35:40;;;;;;;1.83;1.63;;;23.80;49.20;;;;;;5067575;28;20032;-82
2022/05/07 13:38:06;;;;;;;2.10;1.35;;;24.20;45.40;;;;;;5051107;28;20036;-82
2022/05/07 13:40:32;;;;;;;2.22;1.38;;;24.30;46.50;;;;;;5022051;28;20078;-81
2022/05/07 13:43:01;;;;;;;2.45;1.27;;;24.20;46.50;;;;;;5071665;28;20040;-82